createdAt,value
2019-01-13T00:00:11.784Z,301.57
2019-01-13T00:01:08.513Z,301.76
2019-01-13T00:02:08.514Z,301.67
2019-01-13T00:03:08.448Z,301.72
2019-01-13T00:04:08.468Z,301.52
2019-01-13T00:05:08.433Z,301.96
2019-01-13T00:06:08.455Z,301.32
2019-01-13T00:07:08.398Z,300.96
2019-01-13T00:08:08.389Z,301.54
2019-01-13T00:09:08.375Z,301.62
2019-01-13T00:10:08.404Z,301.33
2019-01-13T00:11:08.388Z,300.92
2019-01-13T00:12:08.346Z,301.03
2019-01-13T00:13:08.320Z,301.51
2019-01-13T00:14:08.335Z,301.11
2019-01-13T00:15:08.325Z,301.41
2019-01-13T00:16:08.324Z,301.65
2019-01-13T00:17:08.286Z,301.00
2019-01-13T00:18:08.319Z,301.08
2019-01-13T00:19:08.278Z,300.69
2019-01-13T00:20:08.281Z,301.70
2019-01-13T00:21:08.272Z,301.78
2019-01-13T00:22:08.262Z,301.33
2019-01-13T00:23:08.227Z,301.74
2019-01-13T00:24:08.216Z,301.47
2019-01-13T00:25:08.242Z,301.41
2019-01-13T00:26:08.211Z,301.45
2019-01-13T00:27:08.201Z,301.54
2019-01-13T00:28:08.189Z,301.46
2019-01-13T00:29:08.169Z,301.39
2019-01-13T00:30:08.781Z,301.16
2019-01-13T00:31:08.175Z,301.40
2019-01-13T00:32:08.177Z,301.90
2019-01-13T00:33:08.153Z,301.22
2019-01-13T00:34:09.810Z,301.26
2019-01-13T00:35:08.101Z,301.37
2019-01-13T00:36:08.106Z,301.37
2019-01-13T00:37:08.778Z,301.27
2019-01-13T00:38:08.077Z,301.27
2019-01-13T00:39:08.073Z,301.50
2019-01-13T00:40:08.068Z,301.21
2019-01-13T00:41:08.059Z,301.07
2019-01-13T00:42:08.077Z,301.51
2019-01-13T00:43:08.036Z,301.52
2019-01-13T00:44:08.008Z,300.63
2019-01-13T00:45:08.023Z,301.36
2019-01-13T00:46:08.025Z,301.30
2019-01-13T00:47:08.030Z,301.44
2019-01-13T00:48:08.774Z,300.69
2019-01-13T00:49:07.976Z,300.96
2019-01-13T00:50:07.963Z,301.48
2019-01-13T00:51:07.951Z,301.41
2019-01-13T00:52:07.948Z,301.05
2019-01-13T00:53:07.904Z,301.75
2019-01-13T00:54:07.885Z,301.58
2019-01-13T00:55:07.954Z,301.24
2019-01-13T00:56:07.908Z,300.92
2019-01-13T00:57:07.850Z,301.31
2019-01-13T00:58:07.864Z,301.27
2019-01-13T00:59:07.852Z,301.04
2019-01-13T01:00:07.826Z,301.11
2019-01-13T01:01:08.315Z,301.78
2019-01-13T01:02:07.863Z,301.48
2019-01-13T01:03:07.811Z,301.58
2019-01-13T01:04:07.807Z,301.73
2019-01-13T01:05:14.848Z,300.88
2019-01-13T01:06:15.957Z,300.91
2019-01-13T01:07:14.830Z,300.84
2019-01-13T01:08:07.768Z,301.24
2019-01-13T01:09:07.740Z,300.73
2019-01-13T01:10:07.727Z,301.15
2019-01-13T01:11:07.727Z,301.52
2019-01-13T01:12:07.737Z,300.55
2019-01-13T01:13:07.686Z,301.22
2019-01-13T01:14:07.690Z,301.21
2019-01-13T01:15:07.666Z,300.88
2019-01-13T01:16:07.692Z,301.84
2019-01-13T01:17:08.348Z,300.99
2019-01-13T01:18:07.663Z,300.84
2019-01-13T01:19:07.632Z,300.88
2019-01-13T01:20:07.629Z,301.01
2019-01-13T01:21:07.624Z,300.79
2019-01-13T01:22:07.610Z,301.38
2019-01-13T01:23:07.602Z,301.27
2019-01-13T01:24:07.603Z,300.61
2019-01-13T01:25:07.573Z,301.40
2019-01-13T01:26:07.583Z,301.32
2019-01-13T01:27:07.564Z,301.28
2019-01-13T01:28:07.552Z,300.78
2019-01-13T01:29:07.537Z,301.03
2019-01-13T01:30:07.534Z,301.21
2019-01-13T01:31:07.541Z,300.92
2019-01-13T01:32:07.515Z,300.89
2019-01-13T01:33:07.496Z,301.23
2019-01-13T01:34:07.512Z,300.65
2019-01-13T01:35:07.474Z,301.07
2019-01-13T01:36:07.492Z,301.25
2019-01-13T01:37:07.426Z,301.00
2019-01-13T01:38:07.437Z,300.71
2019-01-13T01:39:07.430Z,300.73
2019-01-13T01:40:14.518Z,301.10
2019-01-13T01:41:07.493Z,300.98
2019-01-13T01:42:07.402Z,300.64
2019-01-13T01:43:14.489Z,300.76
2019-01-13T01:44:15.468Z,301.45
2019-01-13T01:45:15.947Z,301.07
2019-01-13T01:46:14.450Z,301.17
2019-01-13T01:47:15.025Z,300.58
2019-01-13T01:48:07.326Z,301.07
2019-01-13T01:49:14.932Z,300.85
2019-01-13T01:50:16.087Z,300.95
2019-01-13T01:51:15.404Z,300.48
2019-01-13T01:52:07.293Z,300.65
2019-01-13T01:53:07.313Z,300.75
2019-01-13T01:54:07.274Z,300.91
2019-01-13T01:55:07.245Z,301.23
2019-01-13T01:56:07.282Z,300.81
2019-01-13T01:57:07.232Z,300.82
2019-01-13T01:58:07.234Z,300.44
2019-01-13T01:59:07.225Z,300.93
2019-01-13T02:00:07.217Z,301.11
2019-01-13T02:01:07.192Z,300.95
2019-01-13T02:02:07.202Z,301.01
2019-01-13T02:03:07.184Z,300.75
2019-01-13T02:04:07.188Z,300.68
2019-01-13T02:05:07.187Z,299.99
2019-01-13T02:06:07.155Z,300.77
2019-01-13T02:07:07.151Z,300.70
2019-01-13T02:08:07.169Z,300.45
2019-01-13T02:09:07.126Z,300.53
2019-01-13T02:10:07.176Z,300.48
2019-01-13T02:11:07.094Z,301.13
2019-01-13T02:12:07.105Z,300.53
2019-01-13T02:13:07.086Z,300.57
2019-01-13T02:14:07.060Z,301.12
2019-01-13T02:15:07.067Z,300.77
2019-01-13T02:16:07.078Z,300.65
2019-01-13T02:17:07.119Z,300.58
2019-01-13T02:18:07.030Z,300.41
2019-01-13T02:19:07.028Z,300.98
2019-01-13T02:20:07.004Z,301.18
2019-01-13T02:21:06.980Z,300.61
2019-01-13T02:22:07.018Z,301.37
2019-01-13T02:23:06.979Z,300.85
2019-01-13T02:24:06.972Z,300.96
2019-01-13T02:25:06.933Z,300.88
2019-01-13T02:26:06.923Z,300.72
2019-01-13T02:27:06.930Z,300.88
2019-01-13T02:28:06.904Z,300.77
2019-01-13T02:29:06.921Z,300.91
2019-01-13T02:30:06.880Z,301.25
2019-01-13T02:31:06.877Z,300.71
2019-01-13T02:32:06.882Z,301.03
2019-01-13T02:33:06.837Z,300.80
2019-01-13T02:34:06.832Z,301.23
2019-01-13T02:35:06.824Z,301.88
2019-01-13T02:36:06.816Z,301.21
2019-01-13T02:37:06.833Z,301.38
2019-01-13T02:38:06.787Z,301.47
2019-01-13T02:39:06.783Z,300.73
2019-01-13T02:40:06.772Z,301.42
2019-01-13T02:41:06.777Z,301.47
2019-01-13T02:42:06.779Z,301.52
2019-01-13T02:43:06.763Z,301.53
2019-01-13T02:44:06.725Z,301.64
2019-01-13T02:45:06.709Z,301.34
2019-01-13T02:46:06.720Z,301.63
2019-01-13T02:47:06.728Z,301.33
2019-01-13T02:48:06.694Z,301.89
2019-01-13T02:49:06.682Z,301.75
2019-01-13T02:50:06.659Z,301.45
2019-01-13T02:51:06.652Z,301.19
2019-01-13T02:52:06.681Z,301.57
2019-01-13T02:53:06.636Z,300.97
2019-01-13T02:54:06.647Z,301.21
2019-01-13T02:55:06.634Z,301.49
2019-01-13T02:56:06.612Z,302.20
2019-01-13T02:57:06.608Z,301.25
2019-01-13T02:58:06.590Z,300.82
2019-01-13T02:59:06.593Z,301.69
2019-01-13T03:00:06.575Z,301.72
2019-01-13T03:01:06.566Z,301.46
2019-01-13T03:02:06.579Z,301.81
2019-01-13T03:03:06.539Z,301.27
2019-01-13T03:04:06.561Z,301.60
2019-01-13T03:05:06.542Z,301.41
2019-01-13T03:06:06.521Z,301.67
2019-01-13T03:07:06.531Z,301.70
2019-01-13T03:08:06.545Z,301.97
2019-01-13T03:09:06.462Z,301.27
2019-01-13T03:10:06.467Z,302.16
2019-01-13T03:11:06.461Z,302.78
2019-01-13T03:12:13.564Z,301.34
2019-01-13T03:13:13.479Z,301.42
2019-01-13T03:14:13.965Z,301.99
2019-01-13T03:15:19.518Z,302.15
2019-01-13T03:17:17.043Z,300.11
2019-01-13T03:18:24.904Z,301.86
2019-01-13T03:19:24.921Z,301.22
2019-01-13T03:20:24.927Z,301.54
2019-01-13T03:21:24.048Z,302.21
2019-01-13T03:22:25.087Z,301.59
2019-01-13T03:23:24.989Z,301.71
2019-01-13T03:26:38.242Z,299.82
2019-01-13T03:27:46.293Z,301.90
2019-01-13T03:28:45.241Z,301.48
2019-01-13T03:29:38.167Z,301.43
2019-01-13T03:30:38.203Z,301.38
2019-01-13T03:31:38.135Z,301.16
2019-01-13T03:32:38.146Z,302.15
2019-01-13T03:33:38.123Z,301.75
2019-01-13T03:34:38.113Z,302.11
2019-01-13T03:35:38.124Z,301.86
2019-01-13T03:36:38.096Z,301.73
2019-01-13T03:37:38.121Z,302.26
2019-01-13T03:38:38.074Z,302.30
2019-01-13T03:39:38.094Z,301.59
2019-01-13T03:40:38.100Z,301.64
2019-01-13T03:41:38.064Z,301.74
2019-01-13T03:42:38.056Z,301.36
2019-01-13T03:43:38.025Z,301.75
2019-01-13T03:44:38.038Z,301.47
2019-01-13T03:45:38.012Z,301.26
2019-01-13T03:46:38.007Z,302.21
2019-01-13T03:47:38.025Z,302.01
2019-01-13T03:48:37.987Z,301.56
2019-01-13T03:49:37.974Z,301.62
2019-01-13T03:50:37.953Z,302.15
2019-01-13T03:51:37.936Z,302.15
2019-01-13T03:52:38.598Z,303.04
2019-01-13T03:53:37.905Z,302.20
2019-01-13T03:54:37.906Z,301.56
2019-01-13T03:55:37.914Z,301.60
2019-01-13T03:56:37.885Z,302.07
2019-01-13T03:57:37.933Z,302.25
2019-01-13T03:58:37.870Z,301.78
2019-01-13T03:59:37.879Z,302.43
2019-01-13T04:00:37.848Z,301.87
2019-01-13T04:01:37.856Z,302.40
2019-01-13T04:02:37.838Z,302.29
2019-01-13T04:03:37.826Z,302.10
2019-01-13T04:04:44.888Z,302.15
2019-01-13T04:05:44.999Z,301.69
2019-01-13T04:06:44.868Z,301.98
2019-01-13T04:07:37.770Z,302.28
2019-01-13T04:08:37.762Z,302.48
2019-01-13T04:09:37.743Z,301.68
2019-01-13T04:10:37.735Z,302.27
2019-01-13T04:11:37.719Z,301.52
2019-01-13T04:12:37.719Z,301.76
2019-01-13T04:13:37.699Z,302.54
2019-01-13T04:14:37.704Z,302.49
2019-01-13T04:15:37.696Z,302.14
2019-01-13T04:16:37.667Z,302.21
2019-01-13T04:17:37.691Z,302.24
2019-01-13T04:18:37.652Z,302.22
2019-01-13T04:19:37.643Z,302.88
2019-01-13T04:20:37.623Z,302.50
2019-01-13T04:21:37.620Z,301.51
2019-01-13T04:22:37.633Z,301.30
2019-01-13T04:23:37.586Z,302.27
2019-01-13T04:24:37.582Z,301.95
2019-01-13T04:25:37.577Z,302.06
2019-01-13T04:26:37.565Z,301.92
2019-01-13T04:27:37.576Z,302.13
2019-01-13T04:28:37.547Z,301.99
2019-01-13T04:29:37.551Z,302.12
2019-01-13T04:30:37.536Z,302.55
2019-01-13T04:31:37.505Z,302.22
2019-01-13T04:32:37.532Z,301.96
2019-01-13T04:33:37.509Z,301.72
2019-01-13T04:34:37.508Z,301.82
2019-01-13T04:35:37.468Z,301.88
2019-01-13T04:36:37.459Z,301.72
2019-01-13T04:37:37.452Z,301.63
2019-01-13T04:38:37.453Z,301.96
2019-01-13T04:39:37.439Z,302.45
2019-01-13T04:40:37.426Z,301.83
2019-01-13T04:41:37.442Z,301.85
2019-01-13T04:42:37.423Z,301.74
2019-01-13T04:43:37.393Z,302.09
2019-01-13T04:44:37.384Z,302.41
2019-01-13T04:45:37.375Z,302.26
2019-01-13T04:46:38.621Z,302.84
2019-01-13T04:47:37.366Z,302.05
2019-01-13T04:48:37.341Z,301.89
2019-01-13T04:49:37.373Z,302.15
2019-01-13T04:50:37.355Z,302.48
2019-01-13T04:51:37.337Z,302.51
2019-01-13T04:52:37.344Z,302.83
2019-01-13T04:53:37.297Z,302.83
2019-01-13T04:54:37.273Z,302.11
2019-01-13T04:55:37.272Z,302.10
2019-01-13T04:56:37.246Z,302.35
2019-01-13T04:57:37.275Z,302.73
2019-01-13T04:58:37.240Z,302.40
2019-01-13T04:59:37.229Z,301.95
2019-01-13T05:00:37.220Z,301.91
2019-01-13T05:01:37.204Z,302.02
2019-01-13T05:02:37.215Z,302.06
2019-01-13T05:03:37.194Z,302.56
2019-01-13T05:04:37.165Z,302.20
2019-01-13T05:05:37.182Z,302.10
2019-01-13T05:06:37.160Z,302.25
2019-01-13T05:07:37.173Z,302.18
2019-01-13T05:08:44.237Z,302.18
2019-01-13T05:09:45.195Z,302.55
2019-01-13T05:10:37.166Z,302.68
2019-01-13T05:11:37.105Z,302.40
2019-01-13T05:12:37.095Z,301.85
2019-01-13T05:13:37.108Z,301.89
2019-01-13T05:14:37.065Z,302.11
2019-01-13T05:15:37.078Z,302.46
2019-01-13T05:16:37.043Z,302.37
2019-01-13T05:17:37.049Z,302.21
2019-01-13T05:18:37.081Z,302.34
2019-01-13T05:19:37.065Z,302.07
2019-01-13T05:20:37.018Z,301.93
2019-01-13T05:21:36.987Z,301.98
2019-01-13T05:22:36.988Z,302.11
2019-01-13T05:23:36.996Z,302.19
2019-01-13T05:24:36.968Z,302.43
2019-01-13T05:25:36.947Z,302.58
2019-01-13T05:26:36.933Z,301.90
2019-01-13T05:27:36.949Z,301.97
2019-01-13T05:28:36.956Z,302.30
2019-01-13T05:29:36.914Z,302.12
2019-01-13T05:30:36.925Z,302.74
2019-01-13T05:31:41.899Z,302.80
2019-01-13T05:32:37.879Z,302.40
2019-01-13T05:33:36.888Z,301.99
2019-01-13T05:34:36.867Z,302.45
2019-01-13T05:35:36.843Z,302.71
2019-01-13T05:36:36.829Z,302.18
2019-01-13T05:37:36.853Z,302.16
2019-01-13T05:38:36.839Z,302.83
2019-01-13T05:39:36.793Z,301.84
2019-01-13T05:40:36.807Z,301.99
2019-01-13T05:41:36.791Z,302.18
2019-01-13T05:42:36.809Z,302.47
2019-01-13T05:43:36.784Z,302.27
2019-01-13T05:44:36.807Z,302.01
2019-01-13T05:45:36.781Z,302.45
2019-01-13T05:46:36.724Z,302.07
2019-01-13T05:47:36.723Z,301.98
2019-01-13T05:48:36.748Z,301.83
2019-01-13T05:49:36.705Z,302.10
2019-01-13T05:50:36.702Z,302.26
2019-01-13T05:51:36.692Z,302.38
2019-01-13T05:52:36.679Z,302.68
2019-01-13T05:53:36.678Z,302.79
2019-01-13T05:54:36.644Z,302.78
2019-01-13T05:55:36.641Z,302.25
2019-01-13T05:56:36.692Z,302.66
2019-01-13T05:57:36.617Z,303.30
2019-01-13T05:58:36.617Z,302.15
2019-01-13T05:59:36.599Z,303.28
2019-01-13T06:00:36.594Z,302.86
2019-01-13T06:01:36.591Z,302.82
2019-01-13T06:02:36.564Z,303.33
2019-01-13T06:03:36.589Z,303.06
2019-01-13T06:04:36.536Z,302.95
2019-01-13T06:05:36.526Z,303.25
2019-01-13T06:06:36.526Z,302.84
2019-01-13T06:07:36.526Z,302.60
2019-01-13T06:08:36.513Z,303.21
2019-01-13T06:09:36.472Z,303.30
2019-01-13T06:10:36.487Z,302.87
2019-01-13T06:11:36.453Z,303.40
2019-01-13T06:12:36.442Z,302.67
2019-01-13T06:13:36.466Z,302.77
2019-01-13T06:14:36.415Z,303.27
2019-01-13T06:15:36.406Z,303.18
2019-01-13T06:16:36.410Z,302.05
2019-01-13T06:17:36.398Z,302.68
2019-01-13T06:18:36.415Z,302.59
2019-01-13T06:19:36.391Z,302.90
2019-01-13T06:20:36.393Z,302.78
2019-01-13T06:21:36.350Z,302.55
2019-01-13T06:22:36.342Z,302.63
2019-01-13T06:23:36.340Z,302.89
2019-01-13T06:24:36.360Z,302.39
2019-01-13T06:25:36.324Z,302.13
2019-01-13T06:26:36.318Z,302.71
2019-01-13T06:27:36.288Z,302.33
2019-01-13T06:28:36.294Z,302.13
2019-01-13T06:29:36.280Z,302.23
2019-01-13T06:30:36.269Z,302.50
2019-01-13T06:31:36.264Z,302.70
2019-01-13T06:32:36.241Z,302.64
2019-01-13T06:33:36.235Z,302.61
2019-01-13T06:34:36.214Z,302.84
2019-01-13T06:35:36.211Z,302.80
2019-01-13T06:36:36.208Z,302.84
2019-01-13T06:37:36.213Z,302.40
2019-01-13T06:38:36.220Z,303.00
2019-01-13T06:39:36.173Z,302.61
2019-01-13T06:40:36.152Z,302.83
2019-01-13T06:41:36.165Z,302.26
2019-01-13T06:42:36.151Z,302.78
2019-01-13T06:43:36.157Z,302.52
2019-01-13T06:44:36.114Z,302.16
2019-01-13T06:45:36.108Z,302.48
2019-01-13T06:46:36.093Z,302.31
2019-01-13T06:47:36.089Z,302.39
2019-01-13T06:48:36.085Z,301.95
2019-01-13T06:49:36.091Z,302.43
2019-01-13T06:50:36.063Z,302.49
2019-01-13T06:51:36.043Z,302.55
2019-01-13T06:52:36.038Z,302.50
2019-01-13T06:53:36.037Z,303.00
2019-01-13T06:54:36.034Z,302.60
2019-01-13T06:55:35.996Z,302.74
2019-01-13T06:56:35.997Z,302.48
2019-01-13T06:57:35.995Z,303.20
2019-01-13T06:58:35.992Z,302.82
2019-01-13T06:59:35.987Z,302.86
2019-01-13T07:00:35.964Z,302.85
2019-01-13T07:01:35.981Z,303.09
2019-01-13T07:02:35.989Z,303.07
2019-01-13T07:03:43.993Z,302.50
2019-01-13T07:04:43.035Z,302.94
2019-01-13T07:05:42.950Z,303.18
2019-01-13T07:06:43.818Z,302.02
2019-01-13T07:07:42.955Z,302.80
2019-01-13T07:08:42.968Z,302.41
2019-01-13T07:09:35.858Z,302.33
2019-01-13T07:10:42.912Z,302.59
2019-01-13T07:11:43.456Z,302.54
2019-01-13T07:12:43.411Z,302.68
2019-01-13T07:13:42.896Z,302.10
2019-01-13T07:14:44.473Z,302.25
2019-01-13T07:15:43.480Z,302.54
2019-01-13T07:16:43.840Z,302.78
2019-01-13T07:17:42.841Z,302.47
2019-01-13T07:18:35.765Z,302.06
2019-01-13T07:19:35.768Z,303.10
2019-01-13T07:20:35.734Z,302.21
2019-01-13T07:21:35.723Z,302.57
2019-01-13T07:22:35.714Z,302.62
2019-01-13T07:23:35.709Z,302.72
2019-01-13T07:24:35.711Z,302.12
2019-01-13T07:25:35.677Z,302.31
2019-01-13T07:26:35.668Z,302.18
2019-01-13T07:27:35.670Z,301.81
2019-01-13T07:28:35.672Z,302.29
2019-01-13T07:29:35.669Z,302.22
2019-01-13T07:30:35.655Z,302.23
2019-01-13T07:31:35.643Z,301.97
2019-01-13T07:32:35.609Z,302.64
2019-01-13T07:33:35.606Z,302.03
2019-01-13T07:34:35.613Z,302.12
2019-01-13T07:35:35.584Z,301.87
2019-01-13T07:36:35.590Z,301.98
2019-01-13T07:37:35.580Z,301.83
2019-01-13T07:38:35.598Z,302.52
2019-01-13T07:39:35.563Z,302.50
2019-01-13T07:40:36.065Z,302.61
2019-01-13T07:41:35.627Z,302.16
2019-01-13T07:42:35.554Z,302.47
2019-01-13T07:43:35.499Z,301.85
2019-01-13T07:44:35.514Z,301.82
2019-01-13T07:45:35.492Z,302.46
2019-01-13T07:46:35.480Z,302.42
2019-01-13T07:47:35.468Z,302.04
2019-01-13T07:48:35.457Z,302.22
2019-01-13T07:49:35.461Z,302.58
2019-01-13T07:50:35.429Z,302.50
2019-01-13T07:51:35.466Z,302.11
2019-01-13T07:52:35.408Z,302.58
2019-01-13T07:53:35.437Z,302.64
2019-01-13T07:54:35.424Z,302.71
2019-01-13T07:55:35.387Z,302.64
2019-01-13T07:56:35.394Z,302.50
2019-01-13T07:57:35.387Z,302.69
2019-01-13T07:58:35.352Z,302.60
2019-01-13T07:59:35.371Z,302.27
2019-01-13T08:00:35.343Z,302.45
2019-01-13T08:01:35.337Z,302.45
2019-01-13T08:02:35.309Z,302.50
2019-01-13T08:03:35.292Z,302.60
2019-01-13T08:04:35.314Z,302.77
2019-01-13T08:05:35.369Z,302.38
2019-01-13T08:06:35.293Z,302.63
2019-01-13T08:07:35.250Z,302.22
2019-01-13T08:08:35.233Z,302.62
2019-01-13T08:09:35.254Z,303.11
2019-01-13T08:10:35.238Z,302.47
2019-01-13T08:11:35.222Z,302.32
2019-01-13T08:12:35.223Z,303.01
2019-01-13T08:13:35.194Z,302.82
2019-01-13T08:14:35.199Z,302.28
2019-01-13T08:15:35.176Z,303.34
2019-01-13T08:16:36.064Z,302.65
2019-01-13T08:17:35.153Z,302.73
2019-01-13T08:18:35.151Z,302.85
2019-01-13T08:19:35.156Z,303.87
2019-01-13T08:20:35.107Z,302.91
2019-01-13T08:21:35.098Z,302.45
2019-01-13T08:22:35.101Z,302.04
2019-01-13T08:23:35.160Z,302.09
2019-01-13T08:24:35.108Z,302.12
2019-01-13T08:25:42.420Z,301.66
2019-01-13T08:26:43.841Z,302.35
2019-01-13T08:30:31.961Z,302.18
2019-01-13T08:31:32.318Z,302.76
2019-01-13T08:34:09.477Z,302.17
2019-01-13T08:35:09.664Z,302.27
2019-01-13T08:36:09.085Z,302.58
2019-01-13T08:37:09.075Z,303.17
2019-01-13T08:38:09.024Z,302.80
2019-01-13T08:39:09.012Z,302.72
2019-01-13T08:40:09.015Z,302.14
2019-01-13T08:41:09.002Z,302.35
2019-01-13T08:42:09.002Z,302.51
2019-01-13T08:43:08.996Z,302.16
2019-01-13T08:44:08.969Z,302.20
2019-01-13T08:45:08.983Z,302.45
2019-01-13T08:46:08.980Z,302.11
2019-01-13T08:47:08.938Z,301.93
2019-01-13T08:48:08.977Z,302.65
2019-01-13T08:49:08.937Z,301.82
2019-01-13T08:50:16.129Z,301.82
2019-01-13T08:51:15.976Z,301.96
2019-01-13T08:52:08.978Z,302.03
2019-01-13T08:53:08.995Z,302.79
2019-01-13T08:54:08.864Z,301.54
2019-01-13T08:55:09.028Z,302.29
2019-01-13T08:56:08.842Z,302.20
2019-01-13T08:57:08.836Z,301.80
2019-01-13T08:58:08.837Z,301.69
2019-01-13T08:59:09.419Z,301.80
2019-01-13T09:00:08.833Z,301.81
2019-01-13T09:01:09.785Z,302.13
2019-01-13T09:02:08.795Z,301.58
2019-01-13T09:03:08.774Z,301.57
2019-01-13T09:04:08.773Z,302.38
2019-01-13T09:05:08.796Z,301.98
2019-01-13T09:06:08.750Z,302.36
2019-01-13T09:07:08.764Z,301.98
2019-01-13T09:08:08.777Z,302.14
2019-01-13T09:09:08.707Z,301.86
2019-01-13T09:10:08.713Z,302.53
2019-01-13T09:11:08.738Z,302.01
2019-01-13T09:12:08.691Z,302.37
2019-01-13T09:13:09.463Z,302.47
2019-01-13T09:14:08.645Z,301.67
2019-01-13T09:15:08.934Z,301.75
2019-01-13T09:16:08.717Z,302.06
2019-01-13T09:17:08.633Z,301.60
2019-01-13T09:18:08.614Z,301.97
2019-01-13T09:19:08.630Z,302.23
2019-01-13T09:20:08.625Z,302.56
2019-01-13T09:21:08.604Z,301.73
2019-01-13T09:22:08.589Z,301.99
2019-01-13T09:23:08.595Z,302.28
2019-01-13T09:24:08.564Z,302.36
2019-01-13T09:25:09.446Z,302.54
2019-01-13T09:26:08.522Z,302.04
2019-01-13T09:27:08.543Z,302.68
2019-01-13T09:28:08.532Z,302.08
2019-01-13T09:29:08.527Z,302.62
2019-01-13T09:30:08.519Z,302.54
2019-01-13T09:31:08.481Z,302.77
2019-01-13T09:32:08.467Z,303.28
2019-01-13T09:33:08.480Z,303.15
2019-01-13T09:34:08.449Z,302.62
2019-01-13T09:35:08.488Z,302.97
2019-01-13T09:36:08.416Z,303.65
2019-01-13T09:37:08.436Z,303.03
2019-01-13T09:38:08.575Z,302.87
2019-01-13T09:39:08.951Z,303.35
2019-01-13T09:40:08.425Z,303.19
2019-01-13T09:41:08.393Z,302.83
2019-01-13T09:42:08.387Z,303.41
2019-01-13T09:43:08.378Z,303.12
2019-01-13T09:44:08.336Z,303.42
2019-01-13T09:45:08.346Z,302.52
2019-01-13T09:46:08.341Z,303.33
2019-01-13T09:47:08.316Z,303.05
2019-01-13T09:48:08.315Z,303.20
2019-01-13T09:49:08.285Z,302.87
2019-01-13T09:50:08.953Z,302.83
2019-01-13T09:51:08.276Z,303.18
2019-01-13T09:52:08.238Z,303.38
2019-01-13T09:53:08.322Z,303.55
2019-01-13T09:54:08.252Z,302.78
2019-01-13T09:55:08.238Z,303.16
2019-01-13T09:56:08.222Z,302.98
2019-01-13T09:57:08.248Z,303.10
2019-01-13T09:58:08.212Z,303.27
2019-01-13T09:59:08.179Z,303.41
2019-01-13T10:00:08.216Z,302.95
2019-01-13T10:01:08.187Z,303.31
2019-01-13T10:02:08.148Z,302.85
2019-01-13T10:04:25.743Z,302.45
2019-01-13T10:05:25.964Z,303.09
2019-01-13T10:06:26.124Z,303.65
2019-01-13T10:07:25.687Z,303.15
2019-01-13T10:08:25.718Z,303.42
2019-01-13T10:09:25.653Z,302.96
2019-01-13T10:10:25.685Z,303.54
2019-01-13T10:11:25.628Z,303.29
2019-01-13T10:12:25.625Z,302.94
2019-01-13T10:13:25.605Z,303.14
2019-01-13T10:14:25.603Z,303.82
2019-01-13T10:15:25.612Z,304.08
2019-01-13T10:16:25.593Z,303.23
2019-01-13T10:17:25.555Z,303.33
2019-01-13T10:18:25.568Z,304.05
2019-01-13T10:19:25.548Z,303.53
2019-01-13T10:20:25.556Z,302.73
2019-01-13T10:21:25.549Z,303.05
2019-01-13T10:22:25.496Z,303.00
2019-01-13T10:23:25.491Z,303.08
2019-01-13T10:24:25.496Z,303.69
2019-01-13T10:25:25.494Z,303.38
2019-01-13T10:26:25.476Z,303.32
2019-01-13T10:27:25.458Z,303.61
2019-01-13T10:28:25.445Z,302.83
2019-01-13T10:29:25.449Z,303.54
2019-01-13T10:30:25.459Z,303.38
2019-01-13T10:31:25.417Z,302.71
2019-01-13T10:32:25.407Z,302.90
2019-01-13T10:33:25.390Z,302.84
2019-01-13T10:34:25.372Z,302.92
2019-01-13T10:35:25.380Z,303.10
2019-01-13T10:36:25.376Z,303.21
2019-01-13T10:37:25.372Z,303.00
2019-01-13T10:38:25.351Z,303.07
2019-01-13T10:39:25.333Z,302.33
2019-01-13T10:40:25.383Z,302.34
2019-01-13T10:41:25.335Z,302.87
2019-01-13T10:42:25.294Z,302.10
2019-01-13T10:43:25.376Z,302.69
2019-01-13T10:44:25.293Z,302.65
2019-01-13T10:45:25.267Z,302.80
2019-01-13T10:46:25.231Z,302.23
2019-01-13T10:47:25.236Z,301.69
2019-01-13T10:48:25.245Z,302.47
2019-01-13T10:49:25.301Z,301.94
2019-01-13T10:50:25.790Z,303.07
2019-01-13T10:51:25.343Z,302.31
2019-01-13T10:52:25.173Z,302.16
2019-01-13T10:53:25.188Z,302.31
2019-01-13T10:54:25.169Z,302.28
2019-01-13T10:55:32.258Z,302.73
2019-01-13T10:56:25.252Z,301.52
2019-01-13T10:58:35.788Z,301.73
2019-01-13T10:59:43.871Z,302.90
2019-01-13T11:01:46.941Z,300.92
2019-01-13T11:03:02.419Z,302.00
2019-01-13T11:03:47.291Z,303.12
2019-01-13T11:04:46.527Z,302.76
2019-01-13T11:10:32.120Z,300.76
2019-01-13T11:11:32.915Z,302.63
2019-01-13T11:12:32.795Z,302.77
2019-01-13T11:13:32.846Z,303.05
2019-01-13T11:14:31.969Z,302.35
2019-01-13T11:15:31.989Z,303.16
2019-01-13T11:16:31.969Z,302.56
2019-01-13T11:17:31.946Z,303.68
2019-01-13T11:18:31.889Z,302.74
2019-01-13T11:19:31.877Z,303.24
2019-01-13T11:20:32.841Z,303.26
2019-01-13T11:21:31.909Z,302.93
2019-01-13T11:22:31.845Z,302.48
2019-01-13T11:23:32.840Z,302.53
2019-01-13T11:24:31.819Z,302.17
2019-01-13T11:25:31.801Z,302.94
2019-01-13T11:26:31.816Z,302.41
2019-01-13T11:27:31.775Z,302.76
2019-01-13T11:28:31.774Z,302.38
2019-01-13T11:29:32.786Z,302.42
2019-01-13T11:30:31.759Z,302.45
2019-01-13T11:31:31.781Z,302.42
2019-01-13T11:32:31.752Z,302.45
2019-01-13T11:33:31.717Z,302.48
2019-01-13T11:34:31.728Z,302.63
2019-01-13T11:35:32.320Z,302.90
2019-01-13T11:36:32.318Z,303.20
2019-01-13T11:37:31.734Z,302.91
2019-01-13T11:38:31.724Z,302.45
2019-01-13T11:39:31.646Z,303.19
2019-01-13T11:40:31.664Z,302.77
2019-01-13T11:41:31.644Z,302.32
2019-01-13T11:42:31.642Z,302.94
2019-01-13T11:43:31.619Z,302.30
2019-01-13T11:44:31.634Z,303.24
2019-01-13T11:45:31.595Z,302.15
2019-01-13T11:46:31.597Z,302.61
2019-01-13T11:47:31.578Z,302.91
2019-01-13T11:48:31.582Z,302.49
2019-01-13T11:49:31.556Z,302.50
2019-01-13T11:50:31.529Z,303.03
2019-01-13T11:51:31.565Z,302.25
2019-01-13T11:52:31.532Z,302.61
2019-01-13T11:53:31.511Z,302.76
2019-01-13T11:54:31.502Z,302.94
2019-01-13T11:55:31.492Z,303.40
2019-01-13T11:56:31.491Z,302.93
2019-01-13T11:57:31.471Z,303.11
2019-01-13T11:58:31.445Z,302.34
2019-01-13T11:59:31.466Z,302.15
2019-01-13T12:00:31.466Z,302.63
2019-01-13T12:01:31.448Z,302.95
2019-01-13T12:02:32.856Z,302.88
2019-01-13T12:03:31.390Z,303.09
2019-01-13T12:04:31.374Z,302.29
2019-01-13T12:05:31.378Z,302.47
2019-01-13T12:06:31.381Z,302.77
2019-01-13T12:07:31.352Z,302.95
2019-01-13T12:08:31.326Z,303.10
2019-01-13T12:09:31.328Z,302.50
2019-01-13T12:10:31.315Z,302.63
2019-01-13T12:11:31.327Z,302.91
2019-01-13T12:12:31.307Z,302.20
2019-01-13T12:13:31.301Z,303.34
2019-01-13T12:14:31.280Z,302.76
2019-01-13T12:15:31.266Z,302.62
2019-01-13T12:16:31.268Z,302.24
2019-01-13T12:17:31.255Z,303.30
2019-01-13T12:18:31.265Z,302.38
2019-01-13T12:19:31.248Z,302.26
2019-01-13T12:20:31.311Z,303.37
2019-01-13T12:21:31.231Z,303.05
2019-01-13T12:22:31.812Z,302.91
2019-01-13T12:23:31.181Z,303.17
2019-01-13T12:24:31.172Z,302.55
2019-01-13T12:25:31.153Z,303.05
2019-01-13T12:26:31.200Z,302.84
2019-01-13T12:27:31.159Z,302.66
2019-01-13T12:28:31.143Z,302.58
2019-01-13T12:29:31.131Z,302.13
2019-01-13T12:30:31.119Z,302.51
2019-01-13T12:31:32.340Z,302.41
2019-01-13T12:32:31.095Z,302.86
2019-01-13T12:33:31.076Z,303.14
2019-01-13T12:34:31.063Z,302.73
2019-01-13T12:35:31.076Z,303.25
2019-01-13T12:36:31.070Z,302.08
2019-01-13T12:37:31.042Z,303.08
2019-01-13T12:38:31.029Z,303.00
2019-01-13T12:39:31.033Z,303.00
2019-01-13T12:40:31.002Z,303.25
2019-01-13T12:41:31.023Z,303.35
2019-01-13T12:42:31.009Z,302.48
2019-01-13T12:43:30.976Z,302.48
2019-01-13T12:44:30.982Z,302.70